West Hickory, PA (16370)

9:55 PM EDT on July 10, 2014 (GMT -0400)
North Side (KPAOILCI2) Elev 1040 ft | 41.44 °N, 79.71 °W | Change Station

Current weather conditions updated 0 second ago

Clear
Clear
65.6 °F
Feels Like 65.6 °F
N
0.0
Wind Variable Wind from NNW
Gusts 0.0 mph

Tomorrow is forecast to be nearly the same temperature as today.

Today
High -- | Low -- °F
--% Chance of Precip.
Yesterday
High -- | Low -- °F
Precip. -- in
5:53 AM 8:53 PM
Waxing Gibbous, 97% visible
Pressure 30.19 in
Visibility 10.0 miles
Clouds Clear
Dew Point 60 °F
Humidity 82%
Rainfall 0.00 in
Snow Depth Not available.
UV 0.0 out of 12
Pollen 3.30 out of 12
Air Quality Not available.
Flu Activity Sporadic
METAR KFKL 110135Z 01006KT 10SM CLR 18/12 A3019 RMK AO1

More Conditions Fewer Conditions

Pressure 30.19 in
Visibility 10.0 miles
Clouds Clear
Dew Point 60 °F
Humidity 82%
Rainfall 0.00 in
Snow Depth Not available.
UV 0.0 out of 12
Pollen 3.30 out of 12
Air Quality Not available.
Flu Activity Sporadic
METAR KFKL 110135Z 01006KT 10SM CLR 18/12 A3019 RMK AO1

More Conditions Fewer Conditions

10-Day Weather Forecast

Almanac

Astronomy

Jul. 10, 2014 Rise Set
Actual Time 5:53 AM EDT 8:53 PM EDT
Civil Twilight 5:20 AM EDT 9:26 PM EDT
Nautical Twilight 4:37 AM EDT 10:08 PM EDT
Astronomical Twilight 3:47 AM EDT 10:58 PM EDT
Moon 7:03 PM EDT (7/10) 4:03 AM EDT (7/10)
Length of Visible Light 16h 06m
Length of Day
14h 59m
Tomorrow will be 1m 12s shorter.
Waxing Gibbous, 97% of the Moon is Illuminated
Today
Waxing Gibbous
Jul 12
Full
Jul 18
Last Quarter
Jul 26
New
Aug 3
First Quarter

Today's Extremes

State Highs State Lows

Community

WunderPhotos

Upload Photos

1,732,338 photos uploaded!

Nearby

Snow Depth

Station Depth Elevation
No new snow has been reported.

Earthquake Activity

City Distance Mag. Time & Date
No recent earthquake activity has been reported nearby.
Minimum magnitude displayed is 2.5.

Coastal Water Temperatures

Place Temperature
No Stations Reporting

Nearby Weather Stations

Station Location Temp. Dew Point Humidity Wind Precip. Elev Updated Type
North Side, Oil City, PA 65.6 °F 60 °F 82% NNW  at  0.0 mph 0.00 in / hr 1040 ft 9:55 PM EDT Normal
Penn Oaks Campground, Leeper, PA 62.8 °F 58 °F 85% WSW  at  0.9 mph 0.00 in / hr 1621 ft 9:55 PM EDT Rapid Fire
Franklin, Franklin, PA 67.6 °F 59 °F 73% SE  at  0.0 mph 0.00 in / hr 1020 ft 9:54 PM EDT Normal
Townville Area Wx, Townville, PA 61.5 °F 52 °F 72% WNW  at  0.0 mph 0.00 in / hr 1411 ft 9:55 PM EDT Rapid Fire
RAWS ALLEGHENY PA, Marienville, PA 61 °F 56 °F 84% North  at  0 mph 0.00 in / hr 1766 ft 9:07 PM EDT MADIS
Brokenstraw Airport, Pittsfield, PA 59.8 °F 58 °F 93% NE  at  0.0 mph 0.00 in / hr 1235 ft 9:54 PM EDT Rapid Fire
RAWS ERIE PA, Guys Mills, PA 68 °F 54 °F 61% NNE  at  3 mph 0.00 in / hr 1459 ft 8:26 PM EDT MADIS
Kennerdell, Kennerdell, PA 65.8 °F 54 °F 67% NNE  at  0.0 mph 0.00 in / hr 925 ft 9:55 PM EDT Rapid Fire

Show More Stations Show Fewer Stations